sensor_id;sensor_type;location;lat;lon;timestamp;pressure;altitude;pressure_sealevel;temperature;humidity
43820;BME280;67762;52.476;6.046;2023-02-18T00:01:07;102081.81;;;9.76;83.11
43820;BME280;67762;52.476;6.046;2023-02-18T00:03:33;102093.19;;;9.78;82.88
43820;BME280;67762;52.476;6.046;2023-02-18T00:05:58;102085.91;;;9.80;82.74
43820;BME280;67762;52.476;6.046;2023-02-18T00:08:24;102089.66;;;9.78;82.67
43820;BME280;67762;52.476;6.046;2023-02-18T00:10:49;102083.38;;;9.79;82.79
43820;BME280;67762;52.476;6.046;2023-02-18T00:13:15;102083.25;;;9.80;82.68
43820;BME280;67762;52.476;6.046;2023-02-18T00:15:40;102082.28;;;9.81;82.58
43820;BME280;67762;52.476;6.046;2023-02-18T00:18:06;102085.66;;;9.83;82.74
43820;BME280;67762;52.476;6.046;2023-02-18T00:20:31;102079.94;;;9.88;82.51
43820;BME280;67762;52.476;6.046;2023-02-18T00:23:01;102084.03;;;9.92;82.69
43820;BME280;67762;52.476;6.046;2023-02-18T00:25:26;102074.94;;;9.94;82.35
43820;BME280;67762;52.476;6.046;2023-02-18T00:27:52;102083.53;;;9.98;82.22
43820;BME280;67762;52.476;6.046;2023-02-18T00:30:17;102070.19;;;9.98;81.94
43820;BME280;67762;52.476;6.046;2023-02-18T00:32:43;102078.03;;;9.99;81.87
43820;BME280;67762;52.476;6.046;2023-02-18T00:35:09;102067.25;;;10.01;81.56
43820;BME280;67762;52.476;6.046;2023-02-18T00:37:34;102072.44;;;10.02;81.72
43820;BME280;67762;52.476;6.046;2023-02-18T00:39:59;102060.97;;;10.02;81.60
43820;BME280;67762;52.476;6.046;2023-02-18T00:42:25;102060.81;;;10.04;81.65
43820;BME280;67762;52.476;6.046;2023-02-18T00:44:52;102065.31;;;10.03;81.51
43820;BME280;67762;52.476;6.046;2023-02-18T00:47:18;102064.34;;;10.04;81.35
43820;BME280;67762;52.476;6.046;2023-02-18T00:49:44;102060.81;;;10.04;81.24
43820;BME280;67762;52.476;6.046;2023-02-18T00:52:09;102057.31;;;10.03;81.18
43820;BME280;67762;52.476;6.046;2023-02-18T00:54:35;102058.31;;;10.02;81.06
43820;BME280;67762;52.476;6.046;2023-02-18T00:57:00;102054.63;;;10.03;80.96
43820;BME280;67762;52.476;6.046;2023-02-18T00:59:26;102053.94;;;10.01;81.21
43820;BME280;67762;52.476;6.046;2023-02-18T01:01:51;102051.38;;;9.99;81.10
43820;BME280;67762;52.476;6.046;2023-02-18T01:04:17;102039.16;;;9.97;80.78
43820;BME280;67762;52.476;6.046;2023-02-18T01:06:42;102044.63;;;9.95;80.96
43820;BME280;67762;52.476;6.046;2023-02-18T01:09:08;102049.13;;;9.95;81.46
43820;BME280;67762;52.476;6.046;2023-02-18T01:11:34;102039.31;;;9.95;81.36
43820;BME280;67762;52.476;6.046;2023-02-18T01:13:59;102039.41;;;9.94;81.52
43820;BME280;67762;52.476;6.046;2023-02-18T01:16:28;102027.94;;;9.93;81.39
43820;BME280;67762;52.476;6.046;2023-02-18T01:18:53;102011.09;;;9.93;81.29
43820;BME280;67762;52.476;6.046;2023-02-18T01:21:19;102016.53;;;9.91;81.59
43820;BME280;67762;52.476;6.046;2023-02-18T01:23:44;102012.91;;;9.92;82.08
43820;BME280;67762;52.476;6.046;2023-02-18T01:26:10;102012.03;;;9.92;81.83
43820;BME280;67762;52.476;6.046;2023-02-18T01:28:36;102008.53;;;9.91;81.83
43820;BME280;67762;52.476;6.046;2023-02-18T01:31:05;102008.53;;;9.91;82.57
43820;BME280;67762;52.476;6.046;2023-02-18T01:33:31;102001.53;;;9.90;82.39
43820;BME280;67762;52.476;6.046;2023-02-18T01:35:59;102011.19;;;9.91;82.29
43820;BME280;67762;52.476;6.046;2023-02-18T01:38:25;102012.19;;;9.90;82.60
43820;BME280;67762;52.476;6.046;2023-02-18T01:40:51;102005.75;;;9.93;82.72
43820;BME280;67762;52.476;6.046;2023-02-18T01:43:17;102006.59;;;9.93;82.58
43820;BME280;67762;52.476;6.046;2023-02-18T01:45:56;102002.94;;;9.94;82.72
43820;BME280;67762;52.476;6.046;2023-02-18T01:51:05;101981.75;;;9.93;82.82
43820;BME280;67762;52.476;6.046;2023-02-18T01:53:36;101988.75;;;9.94;83.11
43820;BME280;67762;52.476;6.046;2023-02-18T01:56:04;101991.41;;;9.94;82.84
43820;BME280;67762;52.476;6.046;2023-02-18T01:58:32;101984.28;;;9.94;83.03
43820;BME280;67762;52.476;6.046;2023-02-18T02:00:57;101978.94;;;9.94;82.99
43820;BME280;67762;52.476;6.046;2023-02-18T02:03:23;101970.09;;;9.94;83.05
43820;BME280;67762;52.476;6.046;2023-02-18T02:05:48;101962.81;;;9.96;83.41
43820;BME280;67762;52.476;6.046;2023-02-18T02:08:14;101944.00;;;9.97;83.27
43820;BME280;67762;52.476;6.046;2023-02-18T02:13:10;101942.34;;;9.96;83.24
43820;BME280;67762;52.476;6.046;2023-02-18T02:16:01;101934.19;;;9.98;83.52
43820;BME280;67762;52.476;6.046;2023-02-18T02:18:47;101919.75;;;10.00;83.66
43820;BME280;67762;52.476;6.046;2023-02-18T02:21:26;101921.31;;;10.03;83.60
43820;BME280;67762;52.476;6.046;2023-02-18T02:39:45;101888.19;;;10.06;84.09
43820;BME280;67762;52.476;6.046;2023-02-18T02:47:13;101866.69;;;9.97;83.59
43820;BME280;67762;52.476;6.046;2023-02-18T02:49:57;101869.34;;;9.97;83.58
43820;BME280;67762;52.476;6.046;2023-02-18T02:52:31;101860.38;;;9.98;83.87
43820;BME280;67762;52.476;6.046;2023-02-18T02:54:57;101851.69;;;9.96;83.86
43820;BME280;67762;52.476;6.046;2023-02-18T03:00:20;101852.66;;;9.95;83.48
43820;BME280;67762;52.476;6.046;2023-02-18T03:10:37;101842.84;;;9.96;83.90
43820;BME280;67762;52.476;6.046;2023-02-18T03:13:25;101841.16;;;9.95;83.32
43820;BME280;67762;52.476;6.046;2023-02-18T03:15:58;101825.16;;;9.95;83.67
43820;BME280;67762;52.476;6.046;2023-02-18T03:18:35;101830.47;;;9.95;83.72
43820;BME280;67762;52.476;6.046;2023-02-18T03:21:12;101823.59;;;9.92;83.70
43820;BME280;67762;52.476;6.046;2023-02-18T03:23:57;101818.53;;;9.89;83.57
43820;BME280;67762;52.476;6.046;2023-02-18T03:26:25;101823.75;;;9.91;83.57
43820;BME280;67762;52.476;6.046;2023-02-18T03:28:52;101821.91;;;9.91;83.76
43820;BME280;67762;52.476;6.046;2023-02-18T03:31:19;101821.09;;;9.91;83.67
43820;BME280;67762;52.476;6.046;2023-02-18T03:33:58;101811.25;;;9.91;83.62
43820;BME280;67762;52.476;6.046;2023-02-18T03:36:25;101797.78;;;9.93;83.50
43820;BME280;67762;52.476;6.046;2023-02-18T03:38:58;101787.13;;;9.93;83.28
43820;BME280;67762;52.476;6.046;2023-02-18T03:41:25;101788.78;;;9.94;83.45
43820;BME280;67762;52.476;6.046;2023-02-18T03:43:57;101779.13;;;9.93;83.69
43820;BME280;67762;52.476;6.046;2023-02-18T03:46:26;101769.31;;;9.93;83.91
43820;BME280;67762;52.476;6.046;2023-02-18T03:48:52;101763.97;;;9.93;83.53
43820;BME280;67762;52.476;6.046;2023-02-18T03:51:19;101765.81;;;9.93;83.92
43820;BME280;67762;52.476;6.046;2023-02-18T03:53:45;101762.13;;;9.94;84.20
43820;BME280;67762;52.476;6.046;2023-02-18T03:56:11;101751.63;;;9.92;84.26
43820;BME280;67762;52.476;6.046;2023-02-18T03:58:37;101747.25;;;9.91;84.54
43820;BME280;67762;52.476;6.046;2023-02-18T04:01:02;101745.59;;;9.90;84.41
43820;BME280;67762;52.476;6.046;2023-02-18T04:03:28;101736.03;;;9.88;84.80
43820;BME280;67762;52.476;6.046;2023-02-18T04:05:54;101737.88;;;9.87;84.96
43820;BME280;67762;52.476;6.046;2023-02-18T04:08:19;101737.00;;;9.87;85.18
43820;BME280;67762;52.476;6.046;2023-02-18T04:10:44;101725.50;;;9.86;85.18
43820;BME280;67762;52.476;6.046;2023-02-18T04:13:10;101725.50;;;9.86;85.28
43820;BME280;67762;52.476;6.046;2023-02-18T04:15:35;101728.88;;;9.88;85.46
43820;BME280;67762;52.476;6.046;2023-02-18T04:18:01;101737.59;;;9.90;85.38
43820;BME280;67762;52.476;6.046;2023-02-18T04:20:26;101733.94;;;9.91;85.56
43820;BME280;67762;52.476;6.046;2023-02-18T04:22:52;101732.00;;;9.93;85.58
43820;BME280;67762;52.476;6.046;2023-02-18T04:25:17;101729.31;;;9.93;85.95
43820;BME280;67762;52.476;6.046;2023-02-18T04:27:43;101722.03;;;9.95;85.98
43820;BME280;67762;52.476;6.046;2023-02-18T04:30:08;101719.19;;;9.97;85.71
43820;BME280;67762;52.476;6.046;2023-02-18T04:32:34;101718.22;;;9.98;86.27
43820;BME280;67762;52.476;6.046;2023-02-18T04:34:59;101706.59;;;9.99;86.06
43820;BME280;67762;52.476;6.046;2023-02-18T04:37:25;101691.41;;;9.99;85.96
43820;BME280;67762;52.476;6.046;2023-02-18T04:39:50;101682.44;;;10.00;86.30
43820;BME280;67762;52.476;6.046;2023-02-18T04:42:16;101683.13;;;10.02;86.10
43820;BME280;67762;52.476;6.046;2023-02-18T04:44:41;101675.03;;;10.04;86.32
43820;BME280;67762;52.476;6.046;2023-02-18T04:47:06;101661.69;;;10.04;86.75
43820;BME280;67762;52.476;6.046;2023-02-18T04:49:32;101661.53;;;10.06;86.30
43820;BME280;67762;52.476;6.046;2023-02-18T04:51:58;101660.69;;;10.05;86.99
43820;BME280;67762;52.476;6.046;2023-02-18T04:54:23;101652.69;;;10.05;86.77
43820;BME280;67762;52.476;6.046;2023-02-18T04:56:49;101656.19;;;10.06;86.90
43820;BME280;67762;52.476;6.046;2023-02-18T04:59:14;101644.56;;;10.07;86.58
43820;BME280;67762;52.476;6.046;2023-02-18T05:01:40;101653.25;;;10.09;86.65
43820;BME280;67762;52.476;6.046;2023-02-18T05:04:05;101646.25;;;10.08;87.17
43820;BME280;67762;52.476;6.046;2023-02-18T05:06:30;101636.41;;;10.08;86.93
43820;BME280;67762;52.476;6.046;2023-02-18T05:08:56;101640.63;;;10.11;87.14
43820;BME280;67762;52.476;6.046;2023-02-18T05:11:21;101633.38;;;10.13;86.76
43820;BME280;67762;52.476;6.046;2023-02-18T05:13:47;101625.22;;;10.14;87.06
43820;BME280;67762;52.476;6.046;2023-02-18T05:16:12;101621.41;;;10.17;87.11
43820;BME280;67762;52.476;6.046;2023-02-18T05:18:38;101607.13;;;10.18;87.33
43820;BME280;67762;52.476;6.046;2023-02-18T05:21:03;101611.59;;;10.17;87.24
43820;BME280;67762;52.476;6.046;2023-02-18T05:23:29;101605.41;;;10.17;87.26
43820;BME280;67762;52.476;6.046;2023-02-18T05:25:58;101603.47;;;10.19;87.21
43820;BME280;67762;52.476;6.046;2023-02-18T05:28:24;101599.97;;;10.18;87.37
43820;BME280;67762;52.476;6.046;2023-02-18T05:30:50;101591.94;;;10.18;87.51
43820;BME280;67762;52.476;6.046;2023-02-18T05:33:15;101595.59;;;10.17;87.49
43820;BME280;67762;52.476;6.046;2023-02-18T05:35:40;101596.56;;;10.16;87.36
43820;BME280;67762;52.476;6.046;2023-02-18T05:38:06;101585.09;;;10.16;87.63
43820;BME280;67762;52.476;6.046;2023-02-18T05:40:31;101576.25;;;10.15;87.41
43820;BME280;67762;52.476;6.046;2023-02-18T05:42:57;101579.88;;;10.14;87.25
43820;BME280;67762;52.476;6.046;2023-02-18T05:45:22;101583.53;;;10.13;87.63
43820;BME280;67762;52.476;6.046;2023-02-18T05:47:48;101573.69;;;10.14;87.89
43820;BME280;67762;52.476;6.046;2023-02-18T05:50:13;101581.56;;;10.15;87.91
43820;BME280;67762;52.476;6.046;2023-02-18T05:52:39;101568.25;;;10.15;87.99
43820;BME280;67762;52.476;6.046;2023-02-18T05:55:04;101580.56;;;10.16;87.98
43820;BME280;67762;52.476;6.046;2023-02-18T05:57:30;101583.38;;;10.15;87.82
43820;BME280;67762;52.476;6.046;2023-02-18T05:59:56;101572.88;;;10.13;88.18
43820;BME280;67762;52.476;6.046;2023-02-18T06:02:21;101563.88;;;10.14;87.64
43820;BME280;67762;52.476;6.046;2023-02-18T06:04:46;101569.22;;;10.14;87.79
43820;BME280;67762;52.476;6.046;2023-02-18T06:07:12;101572.72;;;10.15;88.11
43820;BME280;67762;52.476;6.046;2023-02-18T06:09:37;101576.94;;;10.17;88.24
43820;BME280;67762;52.476;6.046;2023-02-18T06:12:03;101575.94;;;10.18;88.30
43820;BME280;67762;52.476;6.046;2023-02-18T06:14:29;101583.78;;;10.20;88.51
43820;BME280;67762;52.476;6.046;2023-02-18T06:16:54;101586.19;;;10.23;88.61
43820;BME280;67762;52.476;6.046;2023-02-18T06:19:19;101589.69;;;10.23;88.12
43820;BME280;67762;52.476;6.046;2023-02-18T06:21:45;101585.22;;;10.24;88.60
43820;BME280;67762;52.476;6.046;2023-02-18T06:24:10;101577.91;;;10.26;88.74
43820;BME280;67762;52.476;6.046;2023-02-18T06:26:36;101585.03;;;10.25;88.81
43820;BME280;67762;52.476;6.046;2023-02-18T06:29:01;101578.88;;;10.25;88.61
43820;BME280;67762;52.476;6.046;2023-02-18T06:31:27;101572.84;;;10.23;88.76
43820;BME280;67762;52.476;6.046;2023-02-18T06:33:52;101568.47;;;10.22;88.71
43820;BME280;67762;52.476;6.046;2023-02-18T06:36:18;101551.94;;;10.18;89.28
43820;BME280;67762;52.476;6.046;2023-02-18T06:38:44;101554.63;;;10.18;89.21
43820;BME280;67762;52.476;6.046;2023-02-18T06:41:10;101555.59;;;10.17;89.09
43820;BME280;67762;52.476;6.046;2023-02-18T06:43:36;101558.13;;;10.19;89.36
43820;BME280;67762;52.476;6.046;2023-02-18T06:46:02;101549.28;;;10.18;89.38
43820;BME280;67762;52.476;6.046;2023-02-18T06:48:28;101550.13;;;10.19;89.20
43820;BME280;67762;52.476;6.046;2023-02-18T06:50:53;101549.00;;;10.21;89.52
43820;BME280;67762;52.476;6.046;2023-02-18T06:53:19;101554.34;;;10.21;89.49
43820;BME280;67762;52.476;6.046;2023-02-18T06:55:44;101548.84;;;10.23;89.45
43820;BME280;67762;52.476;6.046;2023-02-18T06:58:10;101556.72;;;10.24;89.35
43820;BME280;67762;52.476;6.046;2023-02-18T07:00:36;101533.41;;;10.26;89.81
43820;BME280;67762;52.476;6.046;2023-02-18T07:03:02;101553.59;;;10.29;89.73
43820;BME280;67762;52.476;6.046;2023-02-18T07:05:28;101535.78;;;10.29;89.85
43820;BME280;67762;52.476;6.046;2023-02-18T07:07:53;101522.44;;;10.29;89.90
43820;BME280;67762;52.476;6.046;2023-02-18T07:10:18;101539.41;;;10.28;89.91
43820;BME280;67762;52.476;6.046;2023-02-18T07:12:44;101548.28;;;10.29;89.62
43820;BME280;67762;52.476;6.046;2023-02-18T07:15:09;101544.63;;;10.30;89.63
43820;BME280;67762;52.476;6.046;2023-02-18T07:17:35;101547.41;;;10.28;89.70
43820;BME280;67762;52.476;6.046;2023-02-18T07:20:00;101527.78;;;10.29;89.74
43820;BME280;67762;52.476;6.046;2023-02-18T07:22:26;101528.47;;;10.31;89.10
43820;BME280;67762;52.476;6.046;2023-02-18T07:24:52;101535.50;;;10.32;89.09
43820;BME280;67762;52.476;6.046;2023-02-18T07:27:18;101536.19;;;10.34;89.16
43820;BME280;67762;52.476;6.046;2023-02-18T07:29:43;101532.53;;;10.35;89.72
43820;BME280;67762;52.476;6.046;2023-02-18T07:32:13;101544.88;;;10.36;89.31
43820;BME280;67762;52.476;6.046;2023-02-18T07:34:38;101528.72;;;10.38;89.34
43820;BME280;67762;52.476;6.046;2023-02-18T07:37:04;101529.41;;;10.40;88.99
43820;BME280;67762;52.476;6.046;2023-02-18T07:39:34;101546.28;;;10.40;89.17
43820;BME280;67762;52.476;6.046;2023-02-18T07:42:01;101543.44;;;10.42;89.42
43820;BME280;67762;52.476;6.046;2023-02-18T07:44:26;101546.97;;;10.42;88.83
43820;BME280;67762;52.476;6.046;2023-02-18T07:46:52;101535.03;;;10.46;88.82
43820;BME280;67762;52.476;6.046;2023-02-18T07:49:17;101533.16;;;10.47;88.57
43820;BME280;67762;52.476;6.046;2023-02-18T07:51:45;101536.56;;;10.49;89.30
43820;BME280;67762;52.476;6.046;2023-02-18T07:54:11;101543.44;;;10.51;88.86
43820;BME280;67762;52.476;6.046;2023-02-18T07:56:36;101546.94;;;10.52;88.36
43820;BME280;67762;52.476;6.046;2023-02-18T07:59:02;101546.94;;;10.52;88.92
43820;BME280;67762;52.476;6.046;2023-02-18T08:01:27;101554.22;;;10.50;88.33
43820;BME280;67762;52.476;6.046;2023-02-18T08:03:54;101546.09;;;10.51;88.42
43820;BME280;67762;52.476;6.046;2023-02-18T08:06:30;101542.41;;;10.52;88.42
43820;BME280;67762;52.476;6.046;2023-02-18T08:08:57;101555.63;;;10.54;88.25
43820;BME280;67762;52.476;6.046;2023-02-18T08:11:23;101551.81;;;10.56;88.37
43820;BME280;67762;52.476;6.046;2023-02-18T08:13:48;101544.50;;;10.58;88.17
43820;BME280;67762;52.476;6.046;2023-02-18T08:16:14;101553.34;;;10.59;88.14
43820;BME280;67762;52.476;6.046;2023-02-18T08:18:40;101542.69;;;10.59;88.23
43820;BME280;67762;52.476;6.046;2023-02-18T08:21:06;101541.84;;;10.58;88.09
43820;BME280;67762;52.476;6.046;2023-02-18T08:23:31;101556.19;;;10.57;88.18
43820;BME280;67762;52.476;6.046;2023-02-18T08:25:57;101560.69;;;10.57;88.14
43820;BME280;67762;52.476;6.046;2023-02-18T08:28:24;101558.97;;;10.56;88.16
43820;BME280;67762;52.476;6.046;2023-02-18T08:30:51;101538.47;;;10.56;88.37
43820;BME280;67762;52.476;6.046;2023-02-18T08:33:17;101539.31;;;10.57;88.25
43820;BME280;67762;52.476;6.046;2023-02-18T08:35:43;101540.00;;;10.59;88.23
43820;BME280;67762;52.476;6.046;2023-02-18T08:38:09;101544.38;;;10.60;87.59
43820;BME280;67762;52.476;6.046;2023-02-18T08:40:35;101542.69;;;10.59;87.41
43820;BME280;67762;52.476;6.046;2023-02-18T08:43:01;101547.03;;;10.60;87.91
43820;BME280;67762;52.476;6.046;2023-02-18T08:45:26;101546.19;;;10.60;87.27
43820;BME280;67762;52.476;6.046;2023-02-18T08:47:52;101562.66;;;10.55;87.92
43820;BME280;67762;52.476;6.046;2023-02-18T08:50:17;101560.28;;;10.52;87.82
43820;BME280;67762;52.476;6.046;2023-02-18T08:52:45;101553.53;;;10.48;86.68
43820;BME280;67762;52.476;6.046;2023-02-18T08:55:11;101557.78;;;10.41;87.45
43820;BME280;67762;52.476;6.046;2023-02-18T08:57:36;101566.78;;;10.30;87.31
43820;BME280;67762;52.476;6.046;2023-02-18T09:00:02;101572.56;;;10.16;87.15
43820;BME280;67762;52.476;6.046;2023-02-18T09:02:28;101578.88;;;10.06;86.83
43820;BME280;67762;52.476;6.046;2023-02-18T09:05:50;101574.69;;;9.93;86.98
43820;BME280;67762;52.476;6.046;2023-02-18T09:08:15;101573.28;;;9.89;87.29
43820;BME280;67762;52.476;6.046;2023-02-18T09:10:41;101574.56;;;9.85;86.82
43820;BME280;67762;52.476;6.046;2023-02-18T09:16:04;101557.84;;;9.83;87.35
43820;BME280;67762;52.476;6.046;2023-02-18T09:18:31;101576.50;;;9.83;87.11
43820;BME280;67762;52.476;6.046;2023-02-18T09:20:57;101573.84;;;9.83;86.98
43820;BME280;67762;52.476;6.046;2023-02-18T09:23:24;101571.06;;;9.85;87.12
43820;BME280;67762;52.476;6.046;2023-02-18T09:25:49;101563.91;;;9.85;87.07
43820;BME280;67762;52.476;6.046;2023-02-18T09:28:15;101577.78;;;9.89;87.04
43820;BME280;67762;52.476;6.046;2023-02-18T09:30:41;101564.31;;;9.90;86.67
43820;BME280;67762;52.476;6.046;2023-02-18T09:33:06;101561.50;;;9.92;86.79
43820;BME280;67762;52.476;6.046;2023-02-18T09:35:32;101573.84;;;9.93;86.67
43820;BME280;67762;52.476;6.046;2023-02-18T09:37:57;101579.19;;;9.93;86.69
43820;BME280;67762;52.476;6.046;2023-02-18T09:40:24;101581.97;;;9.91;87.05
43820;BME280;67762;52.476;6.046;2023-02-18T09:42:50;101578.91;;;9.86;86.62
43820;BME280;67762;52.476;6.046;2023-02-18T09:45:17;101589.28;;;9.80;86.92
43820;BME280;67762;52.476;6.046;2023-02-18T09:47:42;101586.19;;;9.75;86.65
43820;BME280;67762;52.476;6.046;2023-02-18T09:50:19;101594.47;;;9.72;86.81
43820;BME280;67762;52.476;6.046;2023-02-18T09:52:46;101579.47;;;9.71;87.03
43820;BME280;67762;52.476;6.046;2023-02-18T09:57:41;101567.13;;;9.70;86.81
43820;BME280;67762;52.476;6.046;2023-02-18T10:02:56;101587.19;;;9.74;86.93
43820;BME280;67762;52.476;6.046;2023-02-18T10:05:22;101594.06;;;9.76;87.06
43820;BME280;67762;52.476;6.046;2023-02-18T10:07:49;101600.94;;;9.79;86.93
43820;BME280;67762;52.476;6.046;2023-02-18T10:10:20;101603.31;;;9.82;86.57
43820;BME280;67762;52.476;6.046;2023-02-18T10:12:46;101602.31;;;9.83;86.42
43820;BME280;67762;52.476;6.046;2023-02-18T10:15:18;101594.19;;;9.84;86.57
43820;BME280;67762;52.476;6.046;2023-02-18T10:17:44;101582.41;;;9.87;86.82
43820;BME280;67762;52.476;6.046;2023-02-18T10:20:11;101615.81;;;9.91;86.22
43820;BME280;67762;52.476;6.046;2023-02-18T10:22:41;101614.53;;;9.95;86.74
43820;BME280;67762;52.476;6.046;2023-02-18T10:25:06;101603.44;;;9.99;86.24
43820;BME280;67762;52.476;6.046;2023-02-18T10:27:34;101605.41;;;10.07;85.93
43820;BME280;67762;52.476;6.046;2023-02-18T10:32:45;101601.47;;;10.30;85.96
43820;BME280;67762;52.476;6.046;2023-02-18T10:35:28;101598.34;;;10.44;85.37
43820;BME280;67762;52.476;6.046;2023-02-18T10:52:44;101618.16;;;11.15;84.53
43820;BME280;67762;52.476;6.046;2023-02-18T10:55:12;101618.84;;;11.18;83.74
43820;BME280;67762;52.476;6.046;2023-02-18T10:57:47;101604.22;;;11.22;83.90
43820;BME280;67762;52.476;6.046;2023-02-18T11:05:28;101617.81;;;11.28;83.54
43820;BME280;67762;52.476;6.046;2023-02-18T11:07:55;101590.66;;;11.33;82.34
43820;BME280;67762;52.476;6.046;2023-02-18T11:12:51;101602.03;;;11.35;83.15
43820;BME280;67762;52.476;6.046;2023-02-18T11:15:21;101611.47;;;11.29;83.46
43820;BME280;67762;52.476;6.046;2023-02-18T11:17:49;101622.28;;;11.28;83.05
43820;BME280;67762;52.476;6.046;2023-02-18T11:22:47;101624.00;;;11.29;83.01
43820;BME280;67762;52.476;6.046;2023-02-18T11:25:18;101630.47;;;11.26;83.42
43820;BME280;67762;52.476;6.046;2023-02-18T11:27:45;101630.59;;;11.25;82.76
43820;BME280;67762;52.476;6.046;2023-02-18T11:32:39;101612.75;;;11.25;84.00
43820;BME280;67762;52.476;6.046;2023-02-18T11:35:05;101623.00;;;11.30;83.06
43820;BME280;67762;52.476;6.046;2023-02-18T11:37:31;101631.97;;;11.38;83.32
43820;BME280;67762;52.476;6.046;2023-02-18T11:39:57;101634.00;;;11.44;83.15
43820;BME280;67762;52.476;6.046;2023-02-18T11:42:23;101618.22;;;11.51;83.45
43820;BME280;67762;52.476;6.046;2023-02-18T11:44:57;101624.63;;;11.58;84.12
43820;BME280;67762;52.476;6.046;2023-02-18T11:47:27;101639.41;;;11.62;82.68
43820;BME280;67762;52.476;6.046;2023-02-18T11:50:09;101625.03;;;11.63;82.55
43820;BME280;67762;52.476;6.046;2023-02-18T11:52:39;101627.56;;;11.64;82.50
43820;BME280;67762;52.476;6.046;2023-02-18T11:55:13;101635.84;;;11.71;83.27
43820;BME280;67762;52.476;6.046;2023-02-18T11:57:40;101624.56;;;11.77;82.10
43820;BME280;67762;52.476;6.046;2023-02-18T12:02:48;101654.84;;;11.86;81.96
43820;BME280;67762;52.476;6.046;2023-02-18T12:05:19;101648.16;;;11.82;82.85
43820;BME280;67762;52.476;6.046;2023-02-18T12:10:25;101637.25;;;11.65;81.78
43820;BME280;67762;52.476;6.046;2023-02-18T12:12:58;101640.91;;;11.64;81.43
43820;BME280;67762;52.476;6.046;2023-02-18T12:15:30;101642.19;;;11.70;82.60
43820;BME280;67762;52.476;6.046;2023-02-18T12:18:01;101642.88;;;11.72;82.58
43820;BME280;67762;52.476;6.046;2023-02-18T12:20:40;101639.03;;;11.74;82.37
43820;BME280;67762;52.476;6.046;2023-02-18T12:23:17;101628.50;;;11.73;82.25
43820;BME280;67762;52.476;6.046;2023-02-18T12:36:03;101637.84;;;12.04;83.27
43820;BME280;67762;52.476;6.046;2023-02-18T12:38:47;101645.94;;;12.12;83.14
43820;BME280;67762;52.476;6.046;2023-02-18T12:51:57;101634.06;;;12.32;81.05
43820;BME280;67762;52.476;6.046;2023-02-18T13:04:43;101652.69;;;12.42;81.09
43820;BME280;67762;52.476;6.046;2023-02-18T13:15:23;101670.31;;;12.27;81.11
43820;BME280;67762;52.476;6.046;2023-02-18T13:17:52;101669.91;;;12.22;80.98
43820;BME280;67762;52.476;6.046;2023-02-18T13:20:22;101674.75;;;12.18;80.64
43820;BME280;67762;52.476;6.046;2023-02-18T13:22:50;101664.34;;;12.15;81.46
43820;BME280;67762;52.476;6.046;2023-02-18T13:25:17;101675.34;;;12.12;81.20
43820;BME280;67762;52.476;6.046;2023-02-18T13:30:26;101674.69;;;12.10;81.10
43820;BME280;67762;52.476;6.046;2023-02-18T13:35:42;101673.06;;;12.17;81.43
43820;BME280;67762;52.476;6.046;2023-02-18T13:40:55;101666.94;;;12.25;80.85
43820;BME280;67762;52.476;6.046;2023-02-18T13:43:31;101677.50;;;12.26;80.90
43820;BME280;67762;52.476;6.046;2023-02-18T13:51:38;101668.94;;;12.23;80.32
43820;BME280;67762;52.476;6.046;2023-02-18T13:54:03;101680.63;;;12.22;81.24
43820;BME280;67762;52.476;6.046;2023-02-18T13:56:30;101674.59;;;12.20;81.06
43820;BME280;67762;52.476;6.046;2023-02-18T13:59:02;101664.56;;;12.22;80.29
43820;BME280;67762;52.476;6.046;2023-02-18T14:01:37;101684.44;;;12.19;80.60
43820;BME280;67762;52.476;6.046;2023-02-18T14:04:31;101672.88;;;12.19;80.63
43820;BME280;67762;52.476;6.046;2023-02-18T14:09:34;101676.09;;;12.22;80.83
43820;BME280;67762;52.476;6.046;2023-02-18T14:14:41;101678.41;;;12.17;80.43
43820;BME280;67762;52.476;6.046;2023-02-18T14:19:54;101677.72;;;12.15;80.90
43820;BME280;67762;52.476;6.046;2023-02-18T14:22:33;101681.94;;;12.18;80.92
43820;BME280;67762;52.476;6.046;2023-02-18T14:27:33;101697.44;;;12.14;80.42
43820;BME280;67762;52.476;6.046;2023-02-18T14:30:04;101691.72;;;12.09;80.42
43820;BME280;67762;52.476;6.046;2023-02-18T14:32:31;101695.69;;;12.05;80.90
43820;BME280;67762;52.476;6.046;2023-02-18T14:37:35;101696.16;;;12.01;81.08
43820;BME280;67762;52.476;6.046;2023-02-18T14:40:17;101705.31;;;11.98;80.71
43820;BME280;67762;52.476;6.046;2023-02-18T14:42:56;101701.78;;;11.98;81.54
43820;BME280;67762;52.476;6.046;2023-02-18T14:45:32;101693.38;;;11.93;81.60
43820;BME280;67762;52.476;6.046;2023-02-18T14:48:13;101701.88;;;11.88;80.65
43820;BME280;67762;52.476;6.046;2023-02-18T14:50:45;101707.81;;;11.82;80.81
43820;BME280;67762;52.476;6.046;2023-02-18T14:53:16;101712.47;;;11.80;80.81
43820;BME280;67762;52.476;6.046;2023-02-18T14:55:45;101710.81;;;11.79;81.02
43820;BME280;67762;52.476;6.046;2023-02-18T15:00:41;101710.41;;;11.74;81.39
43820;BME280;67762;52.476;6.046;2023-02-18T15:03:13;101711.41;;;11.73;81.61
43820;BME280;67762;52.476;6.046;2023-02-18T15:05:40;101716.59;;;11.74;81.37
43820;BME280;67762;52.476;6.046;2023-02-18T15:08:44;101728.13;;;11.75;80.53
43820;BME280;67762;52.476;6.046;2023-02-18T15:11:05;101710.56;;;11.72;80.36
43820;BME280;67762;52.476;6.046;2023-02-18T15:13:33;101717.72;;;11.72;80.48
43820;BME280;67762;52.476;6.046;2023-02-18T15:16:07;101712.53;;;11.70;80.32
43820;BME280;67762;52.476;6.046;2023-02-18T15:18:35;101727.88;;;11.68;80.58
43820;BME280;67762;52.476;6.046;2023-02-18T15:21:01;101729.81;;;11.66;79.55
43820;BME280;67762;52.476;6.046;2023-02-18T15:23:27;101726.63;;;11.63;79.67
43820;BME280;67762;52.476;6.046;2023-02-18T15:25:54;101724.25;;;11.60;80.35